sensor_id;sensor_type;location;lat;lon;timestamp;temperature;humidity
23301;DHT22;11819;51.394;12.340;2023-08-06T00:00:07;19.50;90.90
23301;DHT22;11819;51.394;12.340;2023-08-06T00:02:34;19.40;91.00
23301;DHT22;11819;51.394;12.340;2023-08-06T00:05:00;19.40;91.10
23301;DHT22;11819;51.394;12.340;2023-08-06T00:07:25;19.30;91.20
23301;DHT22;11819;51.394;12.340;2023-08-06T00:09:51;19.30;91.30
23301;DHT22;11819;51.394;12.340;2023-08-06T00:12:17;19.20;91.40
23301;DHT22;11819;51.394;12.340;2023-08-06T00:14:43;19.20;91.50
23301;DHT22;11819;51.394;12.340;2023-08-06T00:17:09;19.20;91.60
23301;DHT22;11819;51.394;12.340;2023-08-06T00:19:35;19.20;91.70
23301;DHT22;11819;51.394;12.340;2023-08-06T00:22:00;19.10;91.70
23301;DHT22;11819;51.394;12.340;2023-08-06T00:24:27;19.10;91.80
23301;DHT22;11819;51.394;12.340;2023-08-06T00:26:53;19.10;91.90
23301;DHT22;11819;51.394;12.340;2023-08-06T00:29:19;19.00;91.90
23301;DHT22;11819;51.394;12.340;2023-08-06T00:31:45;19.00;91.90
23301;DHT22;11819;51.394;12.340;2023-08-06T00:34:11;19.00;92.00
23301;DHT22;11819;51.394;12.340;2023-08-06T00:36:36;19.00;92.10
23301;DHT22;11819;51.394;12.340;2023-08-06T00:39:02;18.90;92.10
23301;DHT22;11819;51.394;12.340;2023-08-06T00:41:28;18.90;92.20
23301;DHT22;11819;51.394;12.340;2023-08-06T00:43:54;18.90;92.20
23301;DHT22;11819;51.394;12.340;2023-08-06T00:46:20;18.90;92.30
23301;DHT22;11819;51.394;12.340;2023-08-06T00:48:46;18.90;92.40
23301;DHT22;11819;51.394;12.340;2023-08-06T00:51:12;18.80;92.30
23301;DHT22;11819;51.394;12.340;2023-08-06T00:53:39;18.80;92.50
23301;DHT22;11819;51.394;12.340;2023-08-06T00:56:06;18.80;92.60
23301;DHT22;11819;51.394;12.340;2023-08-06T00:58:32;18.80;92.60
23301;DHT22;11819;51.394;12.340;2023-08-06T01:00:58;18.70;92.60
23301;DHT22;11819;51.394;12.340;2023-08-06T01:03:24;18.70;92.70
23301;DHT22;11819;51.394;12.340;2023-08-06T01:05:50;18.70;92.70
23301;DHT22;11819;51.394;12.340;2023-08-06T01:13:51;18.80;92.80
23301;DHT22;11819;51.394;12.340;2023-08-06T01:16:20;18.80;92.80
23301;DHT22;11819;51.394;12.340;2023-08-06T01:18:50;18.80;92.90
23301;DHT22;11819;51.394;12.340;2023-08-06T01:21:17;18.80;93.00
23301;DHT22;11819;51.394;12.340;2023-08-06T01:23:43;18.80;92.90
23301;DHT22;11819;51.394;12.340;2023-08-06T01:26:14;18.80;92.90
23301;DHT22;11819;51.394;12.340;2023-08-06T01:29:07;18.80;92.90
23301;DHT22;11819;51.394;12.340;2023-08-06T01:31:39;18.80;92.90
23301;DHT22;11819;51.394;12.340;2023-08-06T01:34:10;18.80;93.00
23301;DHT22;11819;51.394;12.340;2023-08-06T01:36:39;18.80;93.10
23301;DHT22;11819;51.394;12.340;2023-08-06T01:39:05;18.70;93.10
23301;DHT22;11819;51.394;12.340;2023-08-06T01:41:31;18.80;93.20
23301;DHT22;11819;51.394;12.340;2023-08-06T01:43:57;18.80;93.20
23301;DHT22;11819;51.394;12.340;2023-08-06T01:46:23;18.80;93.30
23301;DHT22;11819;51.394;12.340;2023-08-06T01:48:50;18.80;93.30
23301;DHT22;11819;51.394;12.340;2023-08-06T01:51:16;18.70;93.30
23301;DHT22;11819;51.394;12.340;2023-08-06T01:53:42;18.70;93.30
23301;DHT22;11819;51.394;12.340;2023-08-06T01:56:07;18.70;93.30
23301;DHT22;11819;51.394;12.340;2023-08-06T01:58:34;18.70;93.40
23301;DHT22;11819;51.394;12.340;2023-08-06T02:01:01;18.70;93.50
23301;DHT22;11819;51.394;12.340;2023-08-06T02:03:27;18.70;93.60
23301;DHT22;11819;51.394;12.340;2023-08-06T02:05:52;18.70;93.60
23301;DHT22;11819;51.394;12.340;2023-08-06T02:08:18;18.60;93.60
23301;DHT22;11819;51.394;12.340;2023-08-06T02:10:45;18.60;93.60
23301;DHT22;11819;51.394;12.340;2023-08-06T02:13:11;18.60;93.60
23301;DHT22;11819;51.394;12.340;2023-08-06T02:15:44;18.60;93.70
23301;DHT22;11819;51.394;12.340;2023-08-06T02:18:10;18.50;93.80
23301;DHT22;11819;51.394;12.340;2023-08-06T02:20:36;18.50;93.80
23301;DHT22;11819;51.394;12.340;2023-08-06T02:23:01;18.60;93.90
23301;DHT22;11819;51.394;12.340;2023-08-06T02:25:27;18.60;93.90
23301;DHT22;11819;51.394;12.340;2023-08-06T02:27:53;18.50;93.90
23301;DHT22;11819;51.394;12.340;2023-08-06T02:30:18;18.60;94.00
23301;DHT22;11819;51.394;12.340;2023-08-06T02:32:44;18.60;93.90
23301;DHT22;11819;51.394;12.340;2023-08-06T02:35:09;18.60;93.90
23301;DHT22;11819;51.394;12.340;2023-08-06T02:37:36;18.60;93.80
23301;DHT22;11819;51.394;12.340;2023-08-06T02:40:02;18.70;93.80
23301;DHT22;11819;51.394;12.340;2023-08-06T02:42:29;18.60;93.80
23301;DHT22;11819;51.394;12.340;2023-08-06T02:44:54;18.60;93.90
23301;DHT22;11819;51.394;12.340;2023-08-06T02:47:21;18.60;94.00
23301;DHT22;11819;51.394;12.340;2023-08-06T02:49:46;18.50;94.50
23301;DHT22;11819;51.394;12.340;2023-08-06T02:52:12;18.40;94.30
23301;DHT22;11819;51.394;12.340;2023-08-06T02:54:38;18.40;94.40
23301;DHT22;11819;51.394;12.340;2023-08-06T02:57:05;18.50;94.40
23301;DHT22;11819;51.394;12.340;2023-08-06T02:59:32;18.50;94.40
23301;DHT22;11819;51.394;12.340;2023-08-06T03:02:13;18.50;94.40
23301;DHT22;11819;51.394;12.340;2023-08-06T03:05:13;18.50;94.40
23301;DHT22;11819;51.394;12.340;2023-08-06T03:07:44;18.50;94.80
23301;DHT22;11819;51.394;12.340;2023-08-06T03:10:17;18.50;94.40
23301;DHT22;11819;51.394;12.340;2023-08-06T03:12:43;18.50;94.40
23301;DHT22;11819;51.394;12.340;2023-08-06T03:15:09;18.50;94.40
23301;DHT22;11819;51.394;12.340;2023-08-06T03:17:36;18.50;94.50
23301;DHT22;11819;51.394;12.340;2023-08-06T03:20:04;18.40;94.60
23301;DHT22;11819;51.394;12.340;2023-08-06T03:22:31;18.40;94.60
23301;DHT22;11819;51.394;12.340;2023-08-06T03:24:57;18.40;94.70
23301;DHT22;11819;51.394;12.340;2023-08-06T03:27:25;18.40;94.60
23301;DHT22;11819;51.394;12.340;2023-08-06T03:29:51;18.40;94.60
23301;DHT22;11819;51.394;12.340;2023-08-06T03:32:19;18.40;94.70
23301;DHT22;11819;51.394;12.340;2023-08-06T03:34:46;18.40;94.70
23301;DHT22;11819;51.394;12.340;2023-08-06T03:37:13;18.40;94.90
23301;DHT22;11819;51.394;12.340;2023-08-06T03:39:39;18.40;95.00
23301;DHT22;11819;51.394;12.340;2023-08-06T03:42:05;18.40;95.10
23301;DHT22;11819;51.394;12.340;2023-08-06T03:44:30;18.40;95.20
23301;DHT22;11819;51.394;12.340;2023-08-06T03:46:56;18.40;95.70
23301;DHT22;11819;51.394;12.340;2023-08-06T03:49:22;18.40;95.50
23301;DHT22;11819;51.394;12.340;2023-08-06T03:51:48;18.40;95.60
23301;DHT22;11819;51.394;12.340;2023-08-06T03:54:14;18.40;95.70
23301;DHT22;11819;51.394;12.340;2023-08-06T03:56:40;18.40;95.70
23301;DHT22;11819;51.394;12.340;2023-08-06T03:59:07;18.30;95.80
23301;DHT22;11819;51.394;12.340;2023-08-06T04:01:32;18.30;95.80
23301;DHT22;11819;51.394;12.340;2023-08-06T04:03:58;18.40;95.90
23301;DHT22;11819;51.394;12.340;2023-08-06T04:06:24;18.40;95.90
23301;DHT22;11819;51.394;12.340;2023-08-06T04:08:49;18.30;95.90
23301;DHT22;11819;51.394;12.340;2023-08-06T04:11:15;18.40;96.00
23301;DHT22;11819;51.394;12.340;2023-08-06T04:13:44;18.30;96.00
23301;DHT22;11819;51.394;12.340;2023-08-06T04:16:10;18.30;96.10
23301;DHT22;11819;51.394;12.340;2023-08-06T04:18:36;18.30;96.20
23301;DHT22;11819;51.394;12.340;2023-08-06T04:21:02;18.30;96.30
23301;DHT22;11819;51.394;12.340;2023-08-06T04:23:28;18.20;96.50
23301;DHT22;11819;51.394;12.340;2023-08-06T04:25:59;18.30;96.60
23301;DHT22;11819;51.394;12.340;2023-08-06T04:28:30;18.20;96.60
23301;DHT22;11819;51.394;12.340;2023-08-06T04:30:56;18.30;96.60
23301;DHT22;11819;51.394;12.340;2023-08-06T04:33:23;18.20;96.70
23301;DHT22;11819;51.394;12.340;2023-08-06T04:35:54;18.20;96.70
23301;DHT22;11819;51.394;12.340;2023-08-06T04:38:25;18.30;96.90
23301;DHT22;11819;51.394;12.340;2023-08-06T04:40:52;18.20;97.00
23301;DHT22;11819;51.394;12.340;2023-08-06T04:43:19;18.20;97.00
23301;DHT22;11819;51.394;12.340;2023-08-06T04:45:53;18.20;97.00
23301;DHT22;11819;51.394;12.340;2023-08-06T04:48:18;18.20;97.20
23301;DHT22;11819;51.394;12.340;2023-08-06T04:50:45;18.10;97.40
23301;DHT22;11819;51.394;12.340;2023-08-06T04:53:12;18.10;97.60
23301;DHT22;11819;51.394;12.340;2023-08-06T04:55:38;18.10;97.90
23301;DHT22;11819;51.394;12.340;2023-08-06T04:58:04;18.00;98.20
23301;DHT22;11819;51.394;12.340;2023-08-06T05:00:29;17.90;98.60
23301;DHT22;11819;51.394;12.340;2023-08-06T05:02:55;17.90;99.10
23301;DHT22;11819;51.394;12.340;2023-08-06T05:05:21;17.90;99.10
23301;DHT22;11819;51.394;12.340;2023-08-06T05:07:49;17.80;99.40
23301;DHT22;11819;51.394;12.340;2023-08-06T05:10:15;17.80;99.80
23301;DHT22;11819;51.394;12.340;2023-08-06T05:12:40;17.80;99.90
23301;DHT22;11819;51.394;12.340;2023-08-06T05:15:06;17.90;99.90
23301;DHT22;11819;51.394;12.340;2023-08-06T05:17:32;17.90;99.90
23301;DHT22;11819;51.394;12.340;2023-08-06T05:19:58;17.90;99.90
23301;DHT22;11819;51.394;12.340;2023-08-06T05:22:24;17.90;99.90
23301;DHT22;11819;51.394;12.340;2023-08-06T05:24:49;17.90;99.90
23301;DHT22;11819;51.394;12.340;2023-08-06T05:27:15;17.90;99.90
23301;DHT22;11819;51.394;12.340;2023-08-06T05:29:40;17.80;99.90
23301;DHT22;11819;51.394;12.340;2023-08-06T05:32:07;17.80;99.90
23301;DHT22;11819;51.394;12.340;2023-08-06T05:34:32;17.80;99.90
23301;DHT22;11819;51.394;12.340;2023-08-06T05:36:58;17.80;99.80
23301;DHT22;11819;51.394;12.340;2023-08-06T05:39:23;17.70;99.80
23301;DHT22;11819;51.394;12.340;2023-08-06T05:41:49;17.60;99.50
23301;DHT22;11819;51.394;12.340;2023-08-06T05:44:15;17.60;99.50
23301;DHT22;11819;51.394;12.340;2023-08-06T05:46:41;17.50;99.80
23301;DHT22;11819;51.394;12.340;2023-08-06T05:49:07;17.50;99.90
23301;DHT22;11819;51.394;12.340;2023-08-06T05:51:33;17.50;99.90
23301;DHT22;11819;51.394;12.340;2023-08-06T05:53:58;17.50;99.90
23301;DHT22;11819;51.394;12.340;2023-08-06T05:56:24;17.50;99.90
23301;DHT22;11819;51.394;12.340;2023-08-06T05:58:49;17.50;99.70
23301;DHT22;11819;51.394;12.340;2023-08-06T06:01:18;17.50;99.90
23301;DHT22;11819;51.394;12.340;2023-08-06T06:03:44;17.50;99.90
23301;DHT22;11819;51.394;12.340;2023-08-06T06:06:09;17.50;99.90
23301;DHT22;11819;51.394;12.340;2023-08-06T06:08:35;17.50;99.90
23301;DHT22;11819;51.394;12.340;2023-08-06T06:11:01;17.50;99.90
23301;DHT22;11819;51.394;12.340;2023-08-06T06:13:26;17.50;99.60
23301;DHT22;11819;51.394;12.340;2023-08-06T06:15:56;17.50;99.70
23301;DHT22;11819;51.394;12.340;2023-08-06T06:18:22;17.60;99.70
23301;DHT22;11819;51.394;12.340;2023-08-06T06:20:48;17.60;99.60
23301;DHT22;11819;51.394;12.340;2023-08-06T06:23:14;17.60;99.30
23301;DHT22;11819;51.394;12.340;2023-08-06T06:25:46;17.50;99.30
23301;DHT22;11819;51.394;12.340;2023-08-06T06:28:12;17.60;99.50
23301;DHT22;11819;51.394;12.340;2023-08-06T06:30:37;17.60;99.50
23301;DHT22;11819;51.394;12.340;2023-08-06T06:33:03;17.60;99.20
23301;DHT22;11819;51.394;12.340;2023-08-06T06:35:29;17.70;99.10
23301;DHT22;11819;51.394;12.340;2023-08-06T06:37:55;17.70;99.10
23301;DHT22;11819;51.394;12.340;2023-08-06T06:40:20;17.70;99.00
23301;DHT22;11819;51.394;12.340;2023-08-06T06:42:46;17.70;98.80
23301;DHT22;11819;51.394;12.340;2023-08-06T06:45:13;17.80;98.80
23301;DHT22;11819;51.394;12.340;2023-08-06T06:47:39;17.80;98.50
23301;DHT22;11819;51.394;12.340;2023-08-06T06:50:05;17.80;98.30
23301;DHT22;11819;51.394;12.340;2023-08-06T06:52:31;17.70;98.40
23301;DHT22;11819;51.394;12.340;2023-08-06T06:54:56;17.70;98.40
23301;DHT22;11819;51.394;12.340;2023-08-06T06:57:22;17.70;98.40
23301;DHT22;11819;51.394;12.340;2023-08-06T06:59:47;17.70;98.70
23301;DHT22;11819;51.394;12.340;2023-08-06T07:02:13;17.70;98.80
23301;DHT22;11819;51.394;12.340;2023-08-06T07:04:39;17.70;98.70
23301;DHT22;11819;51.394;12.340;2023-08-06T07:07:04;17.70;98.70
23301;DHT22;11819;51.394;12.340;2023-08-06T07:09:30;17.70;98.70
23301;DHT22;11819;51.394;12.340;2023-08-06T07:11:56;17.80;98.70
23301;DHT22;11819;51.394;12.340;2023-08-06T07:14:21;17.90;98.50
23301;DHT22;11819;51.394;12.340;2023-08-06T07:16:47;18.00;98.00
23301;DHT22;11819;51.394;12.340;2023-08-06T07:19:14;18.00;97.90
23301;DHT22;11819;51.394;12.340;2023-08-06T07:21:39;18.10;97.90
23301;DHT22;11819;51.394;12.340;2023-08-06T07:24:05;18.10;97.40
23301;DHT22;11819;51.394;12.340;2023-08-06T07:26:30;18.00;97.40
23301;DHT22;11819;51.394;12.340;2023-08-06T07:28:56;18.00;97.60
23301;DHT22;11819;51.394;12.340;2023-08-06T07:31:22;17.90;97.80
23301;DHT22;11819;51.394;12.340;2023-08-06T07:33:47;18.10;97.80
23301;DHT22;11819;51.394;12.340;2023-08-06T07:36:14;18.10;97.60
23301;DHT22;11819;51.394;12.340;2023-08-06T07:38:41;18.20;97.30
23301;DHT22;11819;51.394;12.340;2023-08-06T07:41:07;18.20;97.10
23301;DHT22;11819;51.394;12.340;2023-08-06T07:43:32;18.30;96.50
23301;DHT22;11819;51.394;12.340;2023-08-06T07:45:59;18.30;96.50
23301;DHT22;11819;51.394;12.340;2023-08-06T07:48:28;18.30;96.30
23301;DHT22;11819;51.394;12.340;2023-08-06T07:50:54;18.30;95.90
23301;DHT22;11819;51.394;12.340;2023-08-06T07:53:21;18.30;95.40
23301;DHT22;11819;51.394;12.340;2023-08-06T07:55:54;18.20;95.50
23301;DHT22;11819;51.394;12.340;2023-08-06T07:58:20;18.20;95.40
23301;DHT22;11819;51.394;12.340;2023-08-06T08:00:46;18.20;95.40
23301;DHT22;11819;51.394;12.340;2023-08-06T08:03:12;18.20;95.70
23301;DHT22;11819;51.394;12.340;2023-08-06T08:05:42;18.30;95.40
23301;DHT22;11819;51.394;12.340;2023-08-06T08:08:08;18.40;95.50
23301;DHT22;11819;51.394;12.340;2023-08-06T08:10:34;18.40;95.10
23301;DHT22;11819;51.394;12.340;2023-08-06T08:13:01;18.50;95.00
23301;DHT22;11819;51.394;12.340;2023-08-06T08:15:28;18.60;94.60
23301;DHT22;11819;51.394;12.340;2023-08-06T08:17:55;18.60;94.20
23301;DHT22;11819;51.394;12.340;2023-08-06T08:20:21;18.60;93.60
23301;DHT22;11819;51.394;12.340;2023-08-06T08:22:46;18.60;92.90
23301;DHT22;11819;51.394;12.340;2023-08-06T08:25:12;18.50;93.00
23301;DHT22;11819;51.394;12.340;2023-08-06T08:27:38;18.60;93.00
23301;DHT22;11819;51.394;12.340;2023-08-06T08:30:04;18.60;92.90
23301;DHT22;11819;51.394;12.340;2023-08-06T08:32:30;18.60;92.90
23301;DHT22;11819;51.394;12.340;2023-08-06T08:34:56;18.50;93.10
23301;DHT22;11819;51.394;12.340;2023-08-06T08:37:23;18.50;93.20
23301;DHT22;11819;51.394;12.340;2023-08-06T08:39:49;18.60;93.10
23301;DHT22;11819;51.394;12.340;2023-08-06T08:42:15;18.70;92.80
23301;DHT22;11819;51.394;12.340;2023-08-06T08:44:42;18.70;92.60
23301;DHT22;11819;51.394;12.340;2023-08-06T08:47:08;18.80;92.70
23301;DHT22;11819;51.394;12.340;2023-08-06T08:49:35;18.90;92.50
23301;DHT22;11819;51.394;12.340;2023-08-06T08:52:02;19.00;92.50
23301;DHT22;11819;51.394;12.340;2023-08-06T08:54:28;19.10;92.00
23301;DHT22;11819;51.394;12.340;2023-08-06T08:56:57;19.20;91.60
23301;DHT22;11819;51.394;12.340;2023-08-06T08:59:23;19.20;91.30
23301;DHT22;11819;51.394;12.340;2023-08-06T09:01:49;19.20;91.40
23301;DHT22;11819;51.394;12.340;2023-08-06T09:04:18;19.30;91.10
23301;DHT22;11819;51.394;12.340;2023-08-06T09:06:47;19.30;91.20
23301;DHT22;11819;51.394;12.340;2023-08-06T09:09:35;19.30;91.60
23301;DHT22;11819;51.394;12.340;2023-08-06T09:12:11;19.30;91.50
23301;DHT22;11819;51.394;12.340;2023-08-06T09:14:37;19.40;91.50
23301;DHT22;11819;51.394;12.340;2023-08-06T09:17:04;19.40;91.10
23301;DHT22;11819;51.394;12.340;2023-08-06T09:19:31;19.50;91.20
23301;DHT22;11819;51.394;12.340;2023-08-06T09:21:59;19.60;91.20
23301;DHT22;11819;51.394;12.340;2023-08-06T09:24:25;19.70;91.00
23301;DHT22;11819;51.394;12.340;2023-08-06T09:26:52;19.80;90.90
23301;DHT22;11819;51.394;12.340;2023-08-06T09:29:20;19.90;90.70
23301;DHT22;11819;51.394;12.340;2023-08-06T09:31:47;20.00;90.10
23301;DHT22;11819;51.394;12.340;2023-08-06T09:34:20;20.00;90.20
23301;DHT22;11819;51.394;12.340;2023-08-06T09:36:51;20.10;90.00
23301;DHT22;11819;51.394;12.340;2023-08-06T09:39:18;20.00;88.60
23301;DHT22;11819;51.394;12.340;2023-08-06T09:41:44;20.00;89.20
23301;DHT22;11819;51.394;12.340;2023-08-06T09:44:18;20.10;89.40
23301;DHT22;11819;51.394;12.340;2023-08-06T09:46:52;20.10;89.30
23301;DHT22;11819;51.394;12.340;2023-08-06T09:49:19;20.20;88.10
23301;DHT22;11819;51.394;12.340;2023-08-06T09:51:49;20.20;88.80
23301;DHT22;11819;51.394;12.340;2023-08-06T09:54:17;20.20;88.80
23301;DHT22;11819;51.394;12.340;2023-08-06T09:56:46;20.20;88.10
23301;DHT22;11819;51.394;12.340;2023-08-06T09:59:13;20.30;88.50
23301;DHT22;11819;51.394;12.340;2023-08-06T10:01:39;20.20;87.80
23301;DHT22;11819;51.394;12.340;2023-08-06T10:04:06;20.20;88.00
23301;DHT22;11819;51.394;12.340;2023-08-06T10:06:36;20.20;88.50
23301;DHT22;11819;51.394;12.340;2023-08-06T10:09:05;20.30;87.00
23301;DHT22;11819;51.394;12.340;2023-08-06T10:11:31;20.40;85.90
23301;DHT22;11819;51.394;12.340;2023-08-06T10:14:05;20.50;85.10
23301;DHT22;11819;51.394;12.340;2023-08-06T10:16:32;20.50;83.00
23301;DHT22;11819;51.394;12.340;2023-08-06T10:18:59;20.60;83.70
23301;DHT22;11819;51.394;12.340;2023-08-06T10:21:26;20.60;83.70
23301;DHT22;11819;51.394;12.340;2023-08-06T10:23:56;20.70;82.40
23301;DHT22;11819;51.394;12.340;2023-08-06T10:26:27;20.70;80.60
23301;DHT22;11819;51.394;12.340;2023-08-06T10:28:53;20.70;80.90
23301;DHT22;11819;51.394;12.340;2023-08-06T10:31:19;20.70;81.60
23301;DHT22;11819;51.394;12.340;2023-08-06T10:33:46;20.80;80.90
23301;DHT22;11819;51.394;12.340;2023-08-06T10:36:13;20.80;81.70
23301;DHT22;11819;51.394;12.340;2023-08-06T10:38:49;20.80;82.00
23301;DHT22;11819;51.394;12.340;2023-08-06T10:41:21;20.80;82.40
23301;DHT22;11819;51.394;12.340;2023-08-06T10:43:48;20.90;82.80
23301;DHT22;11819;51.394;12.340;2023-08-06T10:46:23;20.90;82.90
23301;DHT22;11819;51.394;12.340;2023-08-06T10:48:52;20.90;82.90
23301;DHT22;11819;51.394;12.340;2023-08-06T10:51:18;20.90;83.50
23301;DHT22;11819;51.394;12.340;2023-08-06T10:53:47;21.00;82.70
23301;DHT22;11819;51.394;12.340;2023-08-06T10:56:20;21.10;80.20
23301;DHT22;11819;51.394;12.340;2023-08-06T10:58:48;21.20;76.90
23301;DHT22;11819;51.394;12.340;2023-08-06T11:01:14;21.10;77.40
23301;DHT22;11819;51.394;12.340;2023-08-06T11:03:42;21.20;77.80
23301;DHT22;11819;51.394;12.340;2023-08-06T11:06:08;21.30;77.30
23301;DHT22;11819;51.394;12.340;2023-08-06T11:08:51;21.30;76.80
23301;DHT22;11819;51.394;12.340;2023-08-06T11:11:18;21.40;76.30
23301;DHT22;11819;51.394;12.340;2023-08-06T11:13:50;21.40;77.10
23301;DHT22;11819;51.394;12.340;2023-08-06T11:16:20;21.40;77.90
23301;DHT22;11819;51.394;12.340;2023-08-06T11:18:47;21.50;77.80
23301;DHT22;11819;51.394;12.340;2023-08-06T11:21:13;21.60;77.30
23301;DHT22;11819;51.394;12.340;2023-08-06T11:23:39;21.70;76.50
23301;DHT22;11819;51.394;12.340;2023-08-06T11:26:06;21.60;77.00
23301;DHT22;11819;51.394;12.340;2023-08-06T11:28:31;21.70;76.00
23301;DHT22;11819;51.394;12.340;2023-08-06T11:30:58;21.70;75.30
23301;DHT22;11819;51.394;12.340;2023-08-06T11:33:27;21.80;74.00
23301;DHT22;11819;51.394;12.340;2023-08-06T11:35:58;21.80;74.00
23301;DHT22;11819;51.394;12.340;2023-08-06T11:38:28;21.90;75.20
23301;DHT22;11819;51.394;12.340;2023-08-06T11:40:54;22.00;76.60
23301;DHT22;11819;51.394;12.340;2023-08-06T11:43:20;22.10;75.00
23301;DHT22;11819;51.394;12.340;2023-08-06T11:45:48;22.20;75.10
23301;DHT22;11819;51.394;12.340;2023-08-06T11:48:15;22.30;74.50
23301;DHT22;11819;51.394;12.340;2023-08-06T11:50:40;22.30;73.90
23301;DHT22;11819;51.394;12.340;2023-08-06T11:53:06;22.20;73.90
23301;DHT22;11819;51.394;12.340;2023-08-06T11:55:32;22.10;74.10
23301;DHT22;11819;51.394;12.340;2023-08-06T11:58:03;22.10;74.00
23301;DHT22;11819;51.394;12.340;2023-08-06T12:00:31;22.00;74.10
23301;DHT22;11819;51.394;12.340;2023-08-06T12:02:58;22.00;73.90
23301;DHT22;11819;51.394;12.340;2023-08-06T12:05:31;22.00;73.60
23301;DHT22;11819;51.394;12.340;2023-08-06T12:08:00;22.00;73.40
23301;DHT22;11819;51.394;12.340;2023-08-06T12:10:27;22.20;73.70
23301;DHT22;11819;51.394;12.340;2023-08-06T12:12:53;22.20;73.60
23301;DHT22;11819;51.394;12.340;2023-08-06T12:15:19;22.20;73.90
23301;DHT22;11819;51.394;12.340;2023-08-06T12:17:45;22.30;74.30
23301;DHT22;11819;51.394;12.340;2023-08-06T12:20:11;22.40;74.10
23301;DHT22;11819;51.394;12.340;2023-08-06T12:22:37;22.50;72.70
23301;DHT22;11819;51.394;12.340;2023-08-06T12:25:07;22.60;71.90
23301;DHT22;11819;51.394;12.340;2023-08-06T12:27:37;22.60;71.80
23301;DHT22;11819;51.394;12.340;2023-08-06T12:30:06;22.70;71.20
23301;DHT22;11819;51.394;12.340;2023-08-06T12:32:33;22.80;72.00
23301;DHT22;11819;51.394;12.340;2023-08-06T12:34:58;22.80;70.90
23301;DHT22;11819;51.394;12.340;2023-08-06T12:37:25;22.90;72.00
23301;DHT22;11819;51.394;12.340;2023-08-06T12:39:50;22.90;72.60
23301;DHT22;11819;51.394;12.340;2023-08-06T12:42:16;22.90;71.90
23301;DHT22;11819;51.394;12.340;2023-08-06T12:44:42;22.90;71.80
23301;DHT22;11819;51.394;12.340;2023-08-06T12:47:08;22.70;70.50
23301;DHT22;11819;51.394;12.340;2023-08-06T12:49:33;22.60;70.60
23301;DHT22;11819;51.394;12.340;2023-08-06T12:51:59;22.50;71.40
23301;DHT22;11819;51.394;12.340;2023-08-06T12:54:30;22.50;74.50
23301;DHT22;11819;51.394;12.340;2023-08-06T12:57:01;22.40;75.00
23301;DHT22;11819;51.394;12.340;2023-08-06T12:59:27;22.40;75.50
23301;DHT22;11819;51.394;12.340;2023-08-06T13:01:52;22.40;75.10
23301;DHT22;11819;51.394;12.340;2023-08-06T13:04:18;22.40;75.50
23301;DHT22;11819;51.394;12.340;2023-08-06T13:06:44;22.40;75.80
23301;DHT22;11819;51.394;12.340;2023-08-06T13:09:09;22.50;75.30
23301;DHT22;11819;51.394;12.340;2023-08-06T13:11:36;22.50;74.70
23301;DHT22;11819;51.394;12.340;2023-08-06T13:14:11;22.60;74.00
23301;DHT22;11819;51.394;12.340;2023-08-06T13:16:38;22.60;71.70
23301;DHT22;11819;51.394;12.340;2023-08-06T13:19:05;22.60;71.40
23301;DHT22;11819;51.394;12.340;2023-08-06T13:24:15;22.70;71.80
23301;DHT22;11819;51.394;12.340;2023-08-06T13:26:41;22.70;71.00
23301;DHT22;11819;51.394;12.340;2023-08-06T13:29:06;22.80;70.50
23301;DHT22;11819;51.394;12.340;2023-08-06T13:31:36;22.80;70.60
23301;DHT22;11819;51.394;12.340;2023-08-06T13:34:02;22.90;70.10
23301;DHT22;11819;51.394;12.340;2023-08-06T13:36:28;23.00;70.00
23301;DHT22;11819;51.394;12.340;2023-08-06T13:38:54;23.10;69.90
23301;DHT22;11819;51.394;12.340;2023-08-06T13:41:20;23.20;69.50
23301;DHT22;11819;51.394;12.340;2023-08-06T13:43:46;23.40;67.50
23301;DHT22;11819;51.394;12.340;2023-08-06T13:46:12;23.70;65.60
23301;DHT22;11819;51.394;12.340;2023-08-06T13:48:45;23.90;64.10
23301;DHT22;11819;51.394;12.340;2023-08-06T13:51:11;24.20;64.00
23301;DHT22;11819;51.394;12.340;2023-08-06T13:53:38;24.50;62.10
23301;DHT22;11819;51.394;12.340;2023-08-06T13:56:05;24.80;62.10
23301;DHT22;11819;51.394;12.340;2023-08-06T13:58:31;25.30;62.20
23301;DHT22;11819;51.394;12.340;2023-08-06T14:00:57;25.70;59.20
23301;DHT22;11819;51.394;12.340;2023-08-06T14:03:23;26.00;58.30
23301;DHT22;11819;51.394;12.340;2023-08-06T14:05:49;26.30;57.00
23301;DHT22;11819;51.394;12.340;2023-08-06T14:08:15;26.30;55.70
23301;DHT22;11819;51.394;12.340;2023-08-06T14:10:44;26.40;55.30
23301;DHT22;11819;51.394;12.340;2023-08-06T14:13:10;26.60;56.10
23301;DHT22;11819;51.394;12.340;2023-08-06T14:15:35;26.60;56.30
23301;DHT22;11819;51.394;12.340;2023-08-06T14:18:02;26.90;55.70
23301;DHT22;11819;51.394;12.340;2023-08-06T14:20:28;27.10;55.30
23301;DHT22;11819;51.394;12.340;2023-08-06T14:22:54;27.20;54.30
23301;DHT22;11819;51.394;12.340;2023-08-06T14:25:19;27.50;54.20
23301;DHT22;11819;51.394;12.340;2023-08-06T14:27:45;27.70;53.30
23301;DHT22;11819;51.394;12.340;2023-08-06T14:30:11;27.50;53.40
23301;DHT22;11819;51.394;12.340;2023-08-06T14:32:37;27.20;54.40
23301;DHT22;11819;51.394;12.340;2023-08-06T14:35:02;27.00;55.50
23301;DHT22;11819;51.394;12.340;2023-08-06T14:37:28;27.00;54.60
23301;DHT22;11819;51.394;12.340;2023-08-06T14:39:54;27.20;54.30
23301;DHT22;11819;51.394;12.340;2023-08-06T14:42:19;27.50;54.50
23301;DHT22;11819;51.394;12.340;2023-08-06T14:44:45;27.70;54.10
23301;DHT22;11819;51.394;12.340;2023-08-06T14:47:11;27.90;54.80
23301;DHT22;11819;51.394;12.340;2023-08-06T14:49:38;27.90;53.30
23301;DHT22;11819;51.394;12.340;2023-08-06T14:52:04;28.00;53.80
23301;DHT22;11819;51.394;12.340;2023-08-06T14:54:29;28.20;54.00
23301;DHT22;11819;51.394;12.340;2023-08-06T14:56:56;28.50;54.70
23301;DHT22;11819;51.394;12.340;2023-08-06T14:59:22;28.80;52.80
23301;DHT22;11819;51.394;12.340;2023-08-06T15:01:48;29.00;52.60
23301;DHT22;11819;51.394;12.340;2023-08-06T15:04:13;29.10;52.70
23301;DHT22;11819;51.394;12.340;2023-08-06T15:06:39;29.30;52.50
23301;DHT22;11819;51.394;12.340;2023-08-06T15:09:04;29.50;51.10
23301;DHT22;11819;51.394;12.340;2023-08-06T15:11:30;29.30;50.40
23301;DHT22;11819;51.394;12.340;2023-08-06T15:13:55;28.70;52.10
23301;DHT22;11819;51.394;12.340;2023-08-06T15:16:21;28.10;52.80
23301;DHT22;11819;51.394;12.340;2023-08-06T15:18:47;27.60;53.40
23301;DHT22;11819;51.394;12.340;2023-08-06T15:21:14;27.20;54.60